createdAt,value
2018-10-06T00:00:09.009Z,8.20
2018-10-06T00:02:37.584Z,9.40
2018-10-06T00:05:06.328Z,8.80
2018-10-06T00:07:34.551Z,9.30
2018-10-06T00:10:02.825Z,8.63
2018-10-06T00:12:31.065Z,8.90
2018-10-06T00:14:59.329Z,9.83
2018-10-06T00:17:27.703Z,9.17
2018-10-06T00:19:56.839Z,10.33
2018-10-06T00:22:25.932Z,9.00
2018-10-06T00:24:54.186Z,8.97
2018-10-06T00:27:22.528Z,9.17
2018-10-06T00:29:50.807Z,10.23
2018-10-06T00:32:19.029Z,9.50
2018-10-06T00:34:47.237Z,9.50
2018-10-06T00:37:15.445Z,9.10
2018-10-06T00:39:43.686Z,10.27
2018-10-06T00:42:11.877Z,9.17
2018-10-06T00:44:40.173Z,9.77
2018-10-06T00:47:08.423Z,9.60
2018-10-06T00:49:36.936Z,10.13
2018-10-06T00:52:05.237Z,9.93
2018-10-06T00:54:33.505Z,9.73
2018-10-06T00:57:01.805Z,9.17
2018-10-06T00:59:30.096Z,9.90
2018-10-06T01:01:58.453Z,10.23
2018-10-06T01:04:26.674Z,9.63
2018-10-06T01:06:54.872Z,9.97
2018-10-06T01:09:23.139Z,9.43
2018-10-06T01:11:51.418Z,10.73
2018-10-06T01:14:19.622Z,9.53
2018-10-06T01:16:47.874Z,10.03
2018-10-06T01:19:16.078Z,10.03
2018-10-06T01:21:44.327Z,10.43
2018-10-06T01:24:12.525Z,10.90
2018-10-06T01:26:40.742Z,9.73
2018-10-06T01:29:08.977Z,10.30
2018-10-06T01:31:37.201Z,10.00
2018-10-06T01:34:05.402Z,10.00
2018-10-06T01:36:33.606Z,10.13
2018-10-06T01:39:01.814Z,10.17
2018-10-06T01:41:30.041Z,11.23
2018-10-06T01:43:58.285Z,10.43
2018-10-06T01:46:26.541Z,10.63
2018-10-06T01:48:54.808Z,10.10
2018-10-06T01:51:22.998Z,10.37
2018-10-06T01:53:51.221Z,10.60
2018-10-06T01:56:19.457Z,9.83
2018-10-06T01:58:47.673Z,10.23
2018-10-06T02:01:15.889Z,10.80
2018-10-06T02:03:44.116Z,10.23
2018-10-06T02:06:12.329Z,10.60
2018-10-06T02:08:40.590Z,10.73
2018-10-06T02:11:08.805Z,9.97
2018-10-06T02:13:37.046Z,10.67
2018-10-06T02:16:05.262Z,10.13
2018-10-06T02:18:33.500Z,10.60
2018-10-06T02:21:01.736Z,10.47
2018-10-06T02:23:29.957Z,11.00
2018-10-06T02:25:58.250Z,10.60
2018-10-06T02:28:26.478Z,11.17
2018-10-06T02:30:54.712Z,11.70
2018-10-06T02:33:22.939Z,12.00
2018-10-06T02:35:51.286Z,12.17
2018-10-06T02:38:19.501Z,11.57
2018-10-06T02:40:47.712Z,12.93
2018-10-06T02:43:15.956Z,11.63
2018-10-06T02:45:44.191Z,11.30
2018-10-06T02:48:12.412Z,11.00
2018-10-06T02:50:40.719Z,11.37
2018-10-06T02:53:09.478Z,10.23
2018-10-06T02:55:37.794Z,11.73
2018-10-06T02:58:06.186Z,9.93
2018-10-06T03:00:34.431Z,10.60
2018-10-06T03:03:02.691Z,10.47
2018-10-06T03:05:30.915Z,10.77
2018-10-06T03:07:59.143Z,11.40
2018-10-06T03:10:27.367Z,10.37
2018-10-06T03:12:55.822Z,11.00
2018-10-06T03:15:24.058Z,11.03
2018-10-06T03:17:52.278Z,11.13
2018-10-06T03:20:20.501Z,11.50
2018-10-06T03:22:48.729Z,10.87
2018-10-06T03:25:17.047Z,10.93
2018-10-06T03:27:45.266Z,12.27
2018-10-06T03:30:13.870Z,11.30
2018-10-06T03:32:42.208Z,11.20
2018-10-06T03:35:10.448Z,10.80
2018-10-06T03:37:38.645Z,10.80
2018-10-06T03:40:06.914Z,10.87
2018-10-06T03:42:35.145Z,11.43
2018-10-06T03:45:03.407Z,10.90
2018-10-06T03:47:31.637Z,11.07
2018-10-06T03:49:59.954Z,11.87
2018-10-06T03:52:28.169Z,11.80
2018-10-06T03:54:56.388Z,11.90
2018-10-06T03:57:24.642Z,11.73
2018-10-06T03:59:52.882Z,11.33
2018-10-06T04:02:21.098Z,11.47
2018-10-06T04:04:49.333Z,11.03
2018-10-06T04:07:17.550Z,11.97
2018-10-06T04:09:45.793Z,11.73
2018-10-06T04:12:14.049Z,11.57
2018-10-06T04:14:42.291Z,11.73
2018-10-06T04:17:10.570Z,11.43
2018-10-06T04:19:38.820Z,10.90
2018-10-06T04:22:07.064Z,11.07
2018-10-06T04:24:35.310Z,11.60
2018-10-06T04:27:03.514Z,11.87
2018-10-06T04:29:31.738Z,11.63
2018-10-06T04:31:59.966Z,12.33
2018-10-06T04:34:28.176Z,11.27
2018-10-06T04:36:56.446Z,11.70
2018-10-06T04:39:24.694Z,12.73
2018-10-06T04:41:52.909Z,12.03
2018-10-06T04:44:21.162Z,12.53
2018-10-06T04:46:49.381Z,12.90
2018-10-06T04:49:17.620Z,13.63
2018-10-06T04:51:45.829Z,11.83
2018-10-06T04:54:14.050Z,12.17
2018-10-06T04:56:42.282Z,12.93
2018-10-06T04:59:10.534Z,12.23
2018-10-06T05:01:38.756Z,12.00
2018-10-06T05:04:06.985Z,12.50
2018-10-06T05:06:35.234Z,12.27
2018-10-06T05:09:04.630Z,12.00
2018-10-06T05:11:32.866Z,12.67
2018-10-06T05:14:01.102Z,12.50
2018-10-06T05:16:29.309Z,12.27
2018-10-06T05:18:57.534Z,12.00
2018-10-06T05:21:25.768Z,11.27
2018-10-06T05:23:53.981Z,12.40
2018-10-06T05:26:22.258Z,12.43
2018-10-06T05:28:50.497Z,12.93
2018-10-06T05:31:18.738Z,12.60
2018-10-06T05:33:46.961Z,12.47
2018-10-06T05:36:15.185Z,12.93
2018-10-06T05:38:43.440Z,13.30
2018-10-06T05:41:11.689Z,12.60
2018-10-06T05:43:39.927Z,13.70
2018-10-06T05:46:08.315Z,12.97
2018-10-06T05:48:36.517Z,12.07
2018-10-06T05:51:04.765Z,12.63
2018-10-06T05:53:32.976Z,12.53
2018-10-06T05:56:01.190Z,11.90
2018-10-06T05:58:29.397Z,11.60
2018-10-06T06:00:57.629Z,11.90
2018-10-06T06:03:25.863Z,11.33
2018-10-06T06:05:54.107Z,11.67
2018-10-06T06:08:22.352Z,11.73
2018-10-06T06:10:50.582Z,11.70
2018-10-06T06:13:18.837Z,11.60
2018-10-06T06:15:47.140Z,10.83
2018-10-06T06:18:15.335Z,11.40
2018-10-06T06:20:49.062Z,12.27
2018-10-06T06:23:17.349Z,12.20
2018-10-06T06:25:45.595Z,12.83
2018-10-06T06:28:13.899Z,11.77
2018-10-06T06:30:42.142Z,12.27
2018-10-06T06:33:12.422Z,11.67
2018-10-06T06:35:40.674Z,12.77
2018-10-06T06:38:10.966Z,12.23
2018-10-06T06:40:39.193Z,12.20
2018-10-06T06:43:07.507Z,13.77
2018-10-06T06:45:35.785Z,12.97
2018-10-06T06:48:03.977Z,12.17
2018-10-06T06:50:32.217Z,11.37
2018-10-06T06:53:00.407Z,11.57
2018-10-06T06:55:28.673Z,11.03
2018-10-06T06:57:56.909Z,11.17
2018-10-06T07:00:25.125Z,11.00
2018-10-06T07:02:53.358Z,10.53
2018-10-06T07:05:22.591Z,11.00
2018-10-06T07:07:50.934Z,10.13
2018-10-06T07:10:19.353Z,10.27
2018-10-06T07:12:47.547Z,10.33
2018-10-06T07:15:16.130Z,9.90
2018-10-06T07:17:44.451Z,10.47
2018-10-06T07:20:12.941Z,11.13
2018-10-06T07:22:41.257Z,10.10
2018-10-06T07:25:09.507Z,10.17
2018-10-06T07:27:37.864Z,9.80
2018-10-06T07:30:06.455Z,9.27
2018-10-06T07:32:45.675Z,9.73
2018-10-06T07:35:13.884Z,9.13
2018-10-06T07:37:42.106Z,9.27
2018-10-06T07:40:15.300Z,9.23
2018-10-06T07:42:43.542Z,9.37
2018-10-06T07:45:11.756Z,10.10
2018-10-06T07:47:41.045Z,9.43
2018-10-06T07:50:09.285Z,8.67
2018-10-06T07:52:37.478Z,8.73
2018-10-06T07:55:05.786Z,8.57
2018-10-06T07:57:34.038Z,8.20
2018-10-06T08:00:02.311Z,8.90
2018-10-06T08:02:30.532Z,8.37
2018-10-06T08:04:58.910Z,8.17
2018-10-06T08:07:27.168Z,7.93
2018-10-06T08:09:55.356Z,7.67
2018-10-06T08:12:23.628Z,6.77
2018-10-06T08:14:51.842Z,6.87
2018-10-06T08:17:20.148Z,6.73
2018-10-06T08:19:48.396Z,6.70
2018-10-06T08:22:16.639Z,6.23
2018-10-06T08:24:44.866Z,5.60
2018-10-06T08:27:13.210Z,5.57
2018-10-06T08:29:41.406Z,5.47
2018-10-06T08:32:09.746Z,5.27
2018-10-06T08:34:37.987Z,5.20
2018-10-06T08:37:06.204Z,5.90
2018-10-06T08:39:34.439Z,5.50
2018-10-06T08:42:02.644Z,5.30
2018-10-06T08:44:30.872Z,5.10
2018-10-06T08:46:59.077Z,5.47
2018-10-06T08:49:27.289Z,5.30
2018-10-06T08:51:55.505Z,5.40
2018-10-06T08:54:23.865Z,5.27
2018-10-06T08:56:53.158Z,5.27
2018-10-06T08:59:21.433Z,4.70
2018-10-06T09:01:49.644Z,5.17
2018-10-06T09:04:17.977Z,5.60
2018-10-06T09:06:47.242Z,5.07
2018-10-06T09:09:15.506Z,5.10
2018-10-06T09:11:43.789Z,5.67
2018-10-06T09:14:12.057Z,5.20
2018-10-06T09:16:40.264Z,5.00
2018-10-06T09:19:08.506Z,5.23
2018-10-06T09:21:36.732Z,5.67
2018-10-06T09:24:04.990Z,5.00
2018-10-06T09:26:33.225Z,5.30
2018-10-06T09:29:01.450Z,5.07
2018-10-06T09:31:29.661Z,5.30
2018-10-06T09:33:57.888Z,4.80
2018-10-06T09:36:26.137Z,4.80
2018-10-06T09:38:54.403Z,5.30
2018-10-06T09:41:22.608Z,4.97
2018-10-06T09:43:50.818Z,4.83
2018-10-06T09:46:19.042Z,4.90
2018-10-06T09:48:47.277Z,4.73
2018-10-06T09:51:15.510Z,4.63
2018-10-06T09:53:43.770Z,4.93
2018-10-06T09:56:11.978Z,4.73
2018-10-06T09:58:40.169Z,4.77
2018-10-06T10:01:13.768Z,4.60
2018-10-06T10:03:47.377Z,4.50
2018-10-06T10:06:15.569Z,4.70
2018-10-06T10:08:43.781Z,4.67
2018-10-06T10:11:12.020Z,4.47
2018-10-06T10:13:40.219Z,4.43
2018-10-06T10:16:08.446Z,4.67
2018-10-06T10:18:36.669Z,4.97
2018-10-06T10:21:04.896Z,4.83
2018-10-06T10:23:33.253Z,4.50
2018-10-06T10:26:01.342Z,4.80
2018-10-06T10:28:29.649Z,4.47
2018-10-06T10:30:57.812Z,4.43
2018-10-06T10:33:26.052Z,4.67
2018-10-06T10:35:54.251Z,4.60
2018-10-06T10:38:22.473Z,4.83
2018-10-06T10:40:50.693Z,4.77
2018-10-06T10:43:18.911Z,4.83
2018-10-06T10:45:47.106Z,4.87
2018-10-06T10:48:15.352Z,4.33
2018-10-06T10:50:43.598Z,4.90
2018-10-06T10:53:11.766Z,4.90
2018-10-06T10:55:40.051Z,4.63
2018-10-06T10:58:08.195Z,4.97
2018-10-06T11:00:36.471Z,4.40
2018-10-06T11:03:04.595Z,5.10
2018-10-06T11:05:32.792Z,4.90
2018-10-06T11:08:01.023Z,4.70
2018-10-06T11:10:29.214Z,4.47
2018-10-06T11:12:57.438Z,4.83
2018-10-06T11:15:25.665Z,4.30
2018-10-06T11:17:53.898Z,4.80
2018-10-06T11:20:22.100Z,4.90
2018-10-06T11:22:50.311Z,4.73
2018-10-06T11:25:18.580Z,4.67
2018-10-06T11:27:46.769Z,4.47
2018-10-06T11:30:14.994Z,5.00
2018-10-06T11:32:43.185Z,4.57
2018-10-06T11:35:11.409Z,4.57
2018-10-06T11:37:39.861Z,4.20
2018-10-06T11:40:07.905Z,4.27
2018-10-06T11:42:36.130Z,4.73
2018-10-06T11:45:04.395Z,4.27
2018-10-06T11:47:32.609Z,4.93
2018-10-06T11:50:01.165Z,4.60
2018-10-06T11:52:29.258Z,4.30
2018-10-06T11:54:57.466Z,4.40
2018-10-06T11:57:25.652Z,4.07
2018-10-06T11:59:53.958Z,4.80
2018-10-06T12:02:22.154Z,4.20
2018-10-06T12:04:50.366Z,4.77
2018-10-06T12:07:18.609Z,4.10
2018-10-06T12:09:46.831Z,4.33
2018-10-06T12:12:15.040Z,4.63
2018-10-06T12:14:43.244Z,4.53
2018-10-06T12:17:11.447Z,4.20
2018-10-06T12:19:39.677Z,4.10
2018-10-06T12:22:07.920Z,4.07
2018-10-06T12:24:36.145Z,4.37
2018-10-06T12:27:04.393Z,3.83
2018-10-06T12:29:32.612Z,4.67
2018-10-06T12:32:00.806Z,4.50
2018-10-06T12:34:29.029Z,4.27
2018-10-06T12:36:57.240Z,4.30
2018-10-06T12:39:25.431Z,4.33
2018-10-06T12:41:53.653Z,3.80
2018-10-06T12:44:21.879Z,3.97
2018-10-06T12:46:50.090Z,4.20
2018-10-06T12:49:18.299Z,4.10
2018-10-06T12:51:46.518Z,3.80
2018-10-06T12:54:14.664Z,4.10
2018-10-06T12:56:42.851Z,8.13
2018-10-06T12:59:11.077Z,3.70
2018-10-06T13:01:39.300Z,3.80
2018-10-06T13:04:07.497Z,3.90
2018-10-06T13:06:35.709Z,3.77
2018-10-06T13:09:04.869Z,3.40
2018-10-06T13:11:33.097Z,3.77
2018-10-06T13:14:01.314Z,3.97
2018-10-06T13:16:29.506Z,3.67
2018-10-06T13:18:57.716Z,3.30
2018-10-06T13:21:25.907Z,3.70
2018-10-06T13:23:54.102Z,2.90
2018-10-06T13:26:22.338Z,3.53
2018-10-06T13:28:50.557Z,3.43
2018-10-06T13:31:18.782Z,3.40
2018-10-06T13:33:46.993Z,3.53
2018-10-06T13:36:15.218Z,3.70
2018-10-06T13:38:43.436Z,3.53
2018-10-06T13:41:11.661Z,3.73
2018-10-06T13:43:39.877Z,3.17
2018-10-06T13:46:08.401Z,3.10
2018-10-06T13:48:36.602Z,3.10
2018-10-06T13:51:04.861Z,3.43
2018-10-06T13:53:33.071Z,3.47
2018-10-06T13:56:01.253Z,3.30
2018-10-06T13:58:29.482Z,3.40
2018-10-06T14:00:57.689Z,3.47
2018-10-06T14:03:26.025Z,2.87
2018-10-06T14:05:54.241Z,2.97
2018-10-06T14:08:22.446Z,3.50
2018-10-06T14:10:50.638Z,2.77
2018-10-06T14:13:18.841Z,2.90
2018-10-06T14:15:47.050Z,3.23
2018-10-06T14:18:15.278Z,3.10
2018-10-06T14:20:43.498Z,3.33
2018-10-06T14:23:11.694Z,3.67
2018-10-06T14:25:39.893Z,3.03
2018-10-06T14:28:08.098Z,3.20
2018-10-06T14:30:36.326Z,3.30
2018-10-06T14:33:04.530Z,3.03
2018-10-06T14:35:32.761Z,3.10
2018-10-06T14:38:00.978Z,2.83
2018-10-06T14:40:29.219Z,3.47
2018-10-06T14:42:57.485Z,3.40
2018-10-06T14:45:25.641Z,3.37
2018-10-06T14:47:53.837Z,3.13
2018-10-06T14:50:22.103Z,3.33
2018-10-06T14:52:50.306Z,3.30
2018-10-06T14:55:18.514Z,3.27
2018-10-06T14:57:46.717Z,3.17
2018-10-06T15:00:14.944Z,3.87
2018-10-06T15:02:43.171Z,3.83
2018-10-06T15:05:11.457Z,3.43
2018-10-06T15:07:39.728Z,3.27
2018-10-06T15:10:08.049Z,3.50
2018-10-06T15:12:36.344Z,3.50
2018-10-06T15:15:04.909Z,3.50
2018-10-06T15:17:33.161Z,3.40
2018-10-06T15:20:01.403Z,3.60
2018-10-06T15:22:29.655Z,3.50
2018-10-06T15:24:57.968Z,3.60
2018-10-06T15:27:26.245Z,3.33
2018-10-06T15:29:54.696Z,3.70
2018-10-06T15:32:22.976Z,3.60
2018-10-06T15:34:51.206Z,3.60
2018-10-06T15:37:19.506Z,3.33
2018-10-06T15:39:47.766Z,3.47
2018-10-06T15:42:16.028Z,3.33
2018-10-06T15:44:44.446Z,3.90
2018-10-06T15:47:12.697Z,3.40
2018-10-06T15:49:40.939Z,3.30
2018-10-06T15:52:09.242Z,3.30
2018-10-06T15:54:37.540Z,3.70
2018-10-06T15:57:06.026Z,3.50
2018-10-06T15:59:34.485Z,3.80
2018-10-06T16:02:02.871Z,3.50
2018-10-06T16:04:31.102Z,3.77
2018-10-06T16:06:59.339Z,4.17
2018-10-06T16:09:27.575Z,3.80
2018-10-06T16:11:55.812Z,4.10
2018-10-06T16:14:24.058Z,3.90
2018-10-06T16:16:52.320Z,3.80
2018-10-06T16:19:20.576Z,4.03
2018-10-06T16:21:48.834Z,4.10
2018-10-06T16:24:17.098Z,4.13
2018-10-06T16:26:45.373Z,4.10
2018-10-06T16:29:13.877Z,4.30
2018-10-06T16:31:42.112Z,3.90
2018-10-06T16:34:10.657Z,3.90
2018-10-06T16:36:38.900Z,4.17
2018-10-06T16:39:07.798Z,4.27
2018-10-06T16:41:36.146Z,3.90
2018-10-06T16:44:04.716Z,4.13
2018-10-06T16:46:33.072Z,4.03
2018-10-06T16:49:01.298Z,4.10
2018-10-06T16:51:29.610Z,3.90
2018-10-06T16:53:57.869Z,4.20
2018-10-06T16:56:26.124Z,5.03
2018-10-06T16:58:54.385Z,4.30
2018-10-06T17:01:22.671Z,4.60
2018-10-06T17:03:50.911Z,4.90
2018-10-06T17:06:19.225Z,4.90
2018-10-06T17:08:47.442Z,5.47
2018-10-06T17:11:15.730Z,5.27
2018-10-06T17:13:43.982Z,5.70
2018-10-06T17:16:12.213Z,4.90
2018-10-06T17:18:40.543Z,4.73
2018-10-06T17:21:08.748Z,5.87
2018-10-06T17:23:37.010Z,5.83
2018-10-06T17:26:05.245Z,5.83
2018-10-06T17:28:33.497Z,5.50
2018-10-06T17:31:01.798Z,5.37
2018-10-06T17:33:30.008Z,4.67
2018-10-06T17:35:58.240Z,5.00
2018-10-06T17:38:26.428Z,5.30
2018-10-06T17:40:54.685Z,4.70
2018-10-06T17:43:22.912Z,5.00
2018-10-06T17:45:51.253Z,5.30
2018-10-06T17:48:19.483Z,5.60
2018-10-06T17:50:47.803Z,6.00
2018-10-06T17:53:15.917Z,6.40
2018-10-06T17:55:44.115Z,5.77
2018-10-06T17:58:12.325Z,5.93
2018-10-06T18:00:40.526Z,5.47
2018-10-06T18:03:08.749Z,5.70
2018-10-06T18:05:38.024Z,6.03
2018-10-06T18:08:06.261Z,5.77
2018-10-06T18:10:34.473Z,5.83
2018-10-06T18:13:02.677Z,4.93
2018-10-06T18:15:31.939Z,5.43
2018-10-06T18:18:00.138Z,5.37
2018-10-06T18:20:28.442Z,5.50
2018-10-06T18:22:56.584Z,6.40
2018-10-06T18:25:24.839Z,9.50
2018-10-06T18:27:53.081Z,8.60
2018-10-06T18:30:21.322Z,8.23
2018-10-06T18:32:49.541Z,7.67
2018-10-06T18:35:17.753Z,6.93
2018-10-06T18:37:45.947Z,7.03
2018-10-06T18:40:14.181Z,6.73
2018-10-06T18:42:43.510Z,6.13
2018-10-06T18:45:11.885Z,6.00
2018-10-06T18:47:40.129Z,5.70
2018-10-06T18:50:08.370Z,5.87
2018-10-06T18:52:38.050Z,6.20
2018-10-06T18:55:06.422Z,5.90
2018-10-06T18:57:34.685Z,6.00
2018-10-06T19:00:03.136Z,6.50
2018-10-06T19:02:31.366Z,6.80
2018-10-06T19:04:59.598Z,6.90
2018-10-06T19:07:27.893Z,6.40
2018-10-06T19:09:56.136Z,6.00
2018-10-06T19:12:24.354Z,5.97
2018-10-06T19:14:52.577Z,6.07
2018-10-06T19:17:20.828Z,6.30
2018-10-06T19:19:49.057Z,5.70
2018-10-06T19:22:17.329Z,5.73
2018-10-06T19:24:45.658Z,5.93
2018-10-06T19:27:13.886Z,6.07
2018-10-06T19:29:42.121Z,6.43
2018-10-06T19:32:10.348Z,6.30
2018-10-06T19:34:38.582Z,6.57
2018-10-06T19:37:06.781Z,6.53
2018-10-06T19:39:35.096Z,6.40
2018-10-06T19:42:03.293Z,6.73
2018-10-06T19:44:31.573Z,6.30
2018-10-06T19:46:59.947Z,5.93
2018-10-06T19:49:28.155Z,6.50
2018-10-06T19:51:56.433Z,6.20
2018-10-06T19:54:24.673Z,6.93
2018-10-06T19:56:52.853Z,6.67
2018-10-06T19:59:21.070Z,6.57
2018-10-06T20:01:49.287Z,7.13
2018-10-06T20:04:17.592Z,6.47
2018-10-06T20:06:45.816Z,7.23
2018-10-06T20:09:14.018Z,7.10
2018-10-06T20:11:42.265Z,7.10
2018-10-06T20:14:10.486Z,7.67
2018-10-06T20:16:38.702Z,8.20
2018-10-06T20:19:07.055Z,7.87
2018-10-06T20:21:35.234Z,7.70
2018-10-06T20:24:03.506Z,8.60
2018-10-06T20:26:31.713Z,7.70
2018-10-06T20:28:59.954Z,8.20
2018-10-06T20:31:28.153Z,7.37
2018-10-06T20:33:56.450Z,7.20
2018-10-06T20:36:25.777Z,7.23
2018-10-06T20:38:54.016Z,7.83
2018-10-06T20:41:22.248Z,7.43
2018-10-06T20:43:50.489Z,6.73
2018-10-06T20:46:18.861Z,7.33
2018-10-06T20:48:47.932Z,7.33
2018-10-06T20:51:16.157Z,7.20
2018-10-06T20:53:44.386Z,7.00
2018-10-06T20:56:12.589Z,8.37
2018-10-06T20:58:40.965Z,7.90
2018-10-06T21:01:09.521Z,7.53
2018-10-06T21:03:37.736Z,7.67
2018-10-06T21:06:05.978Z,7.90
2018-10-06T21:08:34.219Z,7.30
2018-10-06T21:11:02.509Z,7.37
2018-10-06T21:13:30.681Z,6.77
2018-10-06T21:15:58.928Z,7.03
2018-10-06T21:18:27.219Z,6.67
2018-10-06T21:20:55.365Z,6.43
2018-10-06T21:23:23.577Z,7.00
2018-10-06T21:25:51.821Z,7.53
2018-10-06T21:28:20.102Z,6.67
2018-10-06T21:30:48.365Z,7.27
2018-10-06T21:33:16.581Z,7.17
2018-10-06T21:35:44.833Z,6.80
2018-10-06T21:38:13.041Z,7.10
2018-10-06T21:40:41.337Z,7.33
2018-10-06T21:43:14.545Z,7.60
2018-10-06T21:45:42.825Z,6.87
2018-10-06T21:48:11.101Z,6.93
2018-10-06T21:50:39.474Z,7.57
2018-10-06T21:53:07.738Z,7.17
2018-10-06T21:55:35.993Z,7.17
2018-10-06T21:58:04.330Z,6.90
2018-10-06T22:00:32.642Z,7.13
2018-10-06T22:03:00.994Z,6.97
2018-10-06T22:05:29.278Z,7.10
2018-10-06T22:07:57.560Z,7.57
2018-10-06T22:10:25.857Z,6.90
2018-10-06T22:12:55.155Z,6.87
2018-10-06T22:15:23.698Z,6.60
2018-10-06T22:17:51.813Z,6.47
2018-10-06T22:20:20.048Z,6.60
2018-10-06T22:22:48.265Z,7.13
2018-10-06T22:25:16.526Z,7.17
2018-10-06T22:27:44.765Z,7.67
2018-10-06T22:30:12.978Z,6.40
2018-10-06T22:32:41.245Z,7.13
2018-10-06T22:35:09.516Z,7.20
2018-10-06T22:37:37.718Z,8.23
2018-10-06T22:40:06.470Z,7.43
2018-10-06T22:42:34.706Z,8.10
2018-10-06T22:45:02.969Z,7.27
2018-10-06T22:47:31.153Z,7.27
2018-10-06T22:49:59.352Z,7.70
2018-10-06T22:52:27.584Z,7.43
2018-10-06T22:54:56.070Z,7.10
2018-10-06T22:57:24.383Z,7.93
2018-10-06T22:59:52.654Z,7.30
2018-10-06T23:02:20.871Z,7.87
2018-10-06T23:04:49.082Z,7.30
2018-10-06T23:07:17.351Z,7.37
2018-10-06T23:09:46.589Z,7.30
2018-10-06T23:12:14.780Z,8.00
2018-10-06T23:14:43.446Z,7.57
2018-10-06T23:17:11.672Z,7.97
2018-10-06T23:19:40.922Z,7.43
2018-10-06T23:22:09.223Z,7.53
2018-10-06T23:24:37.462Z,7.73
2018-10-06T23:27:05.885Z,7.77
2018-10-06T23:29:34.137Z,7.30
2018-10-06T23:32:02.372Z,8.00
2018-10-06T23:34:30.574Z,7.90
2018-10-06T23:36:58.784Z,7.97
2018-10-06T23:39:27.129Z,8.07
2018-10-06T23:41:55.350Z,7.53
2018-10-06T23:44:23.578Z,8.10
2018-10-06T23:46:51.784Z,8.33
2018-10-06T23:49:19.984Z,8.10
2018-10-06T23:51:48.193Z,7.57
2018-10-06T23:54:16.439Z,8.00
2018-10-06T23:56:44.693Z,8.23
2018-10-06T23:59:12.921Z,7.53
